Time;durP1;ratioP1;P1;durP2;ratioP2;P2;SDS_P1;SDS_P2;PMS_P1;PMS_P2;Temp;Humidity;BMP_temperature;BMP_pressure;BME280_temperature;BME280_humidity;BME280_pressure;Samples;Min_cycle;Max_cycle;Signal;HPM_P1;HPM_P2
2022/01/11 00:01:41;;;;;;;4.75;2.08;;;;;;;2.71;78.66;94555.78;4997190;28;20030;-79
2022/01/11 00:04:07;;;;;;;6.63;2.40;;;;;;;2.32;78.98;94505.22;5015132;28;20033;-79
2022/01/11 00:06:46;;;;;;;7.50;2.40;;;;;;;2.56;78.83;94526.78;4996952;28;20527;-79
2022/01/11 00:12:10;;;;;;;4.97;1.73;;;;;;;3.31;77.72;94628.44;5006428;28;20529;-79
2022/01/11 00:14:36;;;;;;;2.50;1.48;;;;;;;2.37;78.39;94535.88;4997651;28;20408;-79
2022/01/11 00:17:02;;;;;;;2.55;1.50;;;;;;;2.85;78.75;94608.63;4997060;28;20037;-79
2022/01/11 00:19:28;;;;;;;3.25;1.50;;;;;;;2.85;79.11;94593.72;5015448;28;20033;-79
2022/01/11 00:21:55;;;;;;;4.00;1.42;;;;;;;2.92;79.64;94609.25;4997992;28;20022;-79
2022/01/11 00:24:28;;;;;;;3.60;1.45;;;;;;;2.10;79.56;94535.72;5013520;28;20532;-79
2022/01/11 00:27:05;;;;;;;4.95;1.00;;;;;;;2.69;79.42;94636.41;5013086;28;20022;-79
2022/01/11 00:29:33;;;;;;;4.03;1.20;;;;;;;2.40;79.41;94551.13;5028127;28;20032;-79
2022/01/11 00:32:04;;;;;;;3.33;1.33;;;;;;;2.57;79.25;94585.94;5013828;28;20034;-79
2022/01/11 00:34:39;;;;;;;1.30;1.05;;;;;;;2.73;79.37;94621.81;5027317;28;20121;-79
2022/01/11 00:37:07;;;;;;;2.92;1.00;;;;;;;2.46;80.28;94568.47;5013048;28;20807;-79
2022/01/11 00:39:33;;;;;;;2.92;1.13;;;;;;;2.35;79.48;94543.19;5027847;28;20041;-78
2022/01/11 00:41:58;;;;;;;4.25;0.90;;;;;;;2.66;79.71;94580.09;4995367;28;20034;-78
2022/01/11 00:44:24;;;;;;;2.05;1.10;;;;;;;3.05;79.67;94659.50;5012880;28;20137;-79
2022/01/11 00:46:49;;;;;;;3.35;1.60;;;;;;;3.06;80.43;94644.56;4994628;28;20034;-79
2022/01/11 00:49:16;;;;;;;4.03;1.23;;;;;;;2.70;79.95;94583.81;4995490;28;20076;-79
2022/01/11 00:51:42;;;;;;;4.90;1.80;;;;;;;3.00;80.13;94648.94;5012838;28;20461;-79
2022/01/11 00:54:07;;;;;;;5.25;1.67;;;;;;;2.99;79.96;94630.84;5012649;28;20387;-79
2022/01/11 00:56:33;;;;;;;2.47;1.48;;;;;;;2.84;79.43;94622.75;5012241;28;20091;-79
2022/01/11 00:59:17;;;;;;;1.85;1.25;;;;;;;3.17;79.10;94663.88;4196513;28;10001896;-79
2022/01/11 01:01:43;;;;;;;3.88;1.80;;;;;;;2.69;79.75;94603.16;1723595;28;10001972;-80
2022/01/11 01:04:08;;;;;;;7.43;2.00;;;;;;;2.64;79.75;94591.81;4984800;28;20137;-80
2022/01/11 01:06:51;;;;;;;4.82;2.03;;;;;;;2.87;79.62;94645.84;1221760;28;10021656;-80
2022/01/11 01:09:17;;;;;;;4.43;2.38;;;;;;;2.70;79.73;94648.47;4650539;28;10000862;-80
2022/01/11 01:11:44;;;;;;;4.40;2.40;;;;;;;2.42;80.30;94617.13;4993925;28;20244;-80
2022/01/11 01:14:10;;;;;;;3.88;1.85;;;;;;;2.79;80.95;94682.91;4993143;28;20034;-80
2022/01/11 01:16:36;;;;;;;3.60;1.70;;;;;;;2.22;80.95;94571.25;4993928;28;20130;-80
2022/01/11 01:19:04;;;;;;;3.53;1.65;;;;;;;2.76;80.18;94644.09;4994371;28;20346;-80
2022/01/11 01:21:36;;;;;;;4.60;2.17;;;;;;;2.68;80.12;94643.47;4992791;28;20445;-80
2022/01/11 01:24:03;;;;;;;3.92;2.10;;;;;;;2.93;80.65;94684.19;5025033;28;20030;-80
2022/01/11 01:26:31;;;;;;;4.40;1.60;;;;;;;2.87;79.11;94685.94;4992491;28;20084;-80
2022/01/11 01:28:58;;;;;;;3.05;1.50;;;;;;;2.04;77.74;94584.53;4992356;28;20117;-80
2022/01/11 01:31:24;;;;;;;5.15;1.50;;;;;;;1.91;78.45;94556.84;4992802;28;20082;-80
2022/01/11 01:33:50;;;;;;;3.72;1.48;;;;;;;1.95;78.46;94557.19;5025498;28;20029;-80
2022/01/11 01:36:15;;;;;;;7.80;1.40;;;;;;;2.23;77.82;94622.53;5024997;28;20070;-80
2022/01/11 01:38:41;;;;;;;3.40;1.27;;;;;;;2.41;76.97;94688.78;4993013;28;20116;-80
2022/01/11 01:41:14;;;;;;;2.85;1.25;;;;;;;2.08;78.68;94652.84;5025311;28;20050;-80
2022/01/11 01:43:40;;;;;;;2.45;1.02;;;;;;;1.56;79.04;94574.50;5001960;28;20058;-80
2022/01/11 01:46:06;;;;;;;4.50;1.40;;;;;;;2.06;79.20;94671.41;4996383;28;20034;-80
2022/01/11 01:48:31;;;;;;;1.40;0.90;;;;;;;2.28;78.98;94701.16;5014338;28;20478;-80
2022/01/11 01:50:57;;;;;;;1.88;1.30;;;;;;;2.03;79.74;94640.50;4996880;28;20033;-80
2022/01/11 01:53:23;;;;;;;1.85;1.02;;;;;;;2.39;80.23;94699.50;5014500;28;20034;-80
2022/01/11 01:55:49;;;;;;;1.70;1.00;;;;;;;1.98;79.35;94635.19;5015168;28;20030;-80
2022/01/11 01:58:15;;;;;;;1.33;1.08;;;;;;;2.25;79.56;94658.94;4996272;28;20030;-81
2022/01/11 02:00:46;;;;;;;1.92;1.05;;;;;;;2.64;78.75;94699.16;4996804;28;20038;-80
2022/01/11 02:03:15;;;;;;;2.85;0.77;;;;;;;2.28;78.79;94692.50;5014297;28;20115;-80
2022/01/11 02:05:42;;;;;;;2.22;0.82;;;;;;;2.26;77.63;94713.66;5029724;28;20096;-80
2022/01/11 02:08:09;;;;;;;3.47;0.77;;;;;;;2.42;78.05;94716.56;5029758;28;20093;-80
2022/01/11 02:10:39;;;;;;;1.55;0.80;;;;;;;2.47;78.32;94719.25;5015297;28;20095;-80
2022/01/11 02:13:08;;;;;;;2.15;0.93;;;;;;;2.19;78.01;94638.94;5014167;28;20037;-81
2022/01/11 02:15:34;;;;;;;1.10;0.73;;;;;;;1.87;77.75;94630.78;5029441;28;20522;-80
2022/01/11 02:18:08;;;;;;;1.90;0.90;;;;;;;2.70;77.47;94719.16;5015042;28;20414;-81
2022/01/11 02:20:35;;;;;;;4.93;0.88;;;;;;;1.93;78.10;94619.38;5029481;28;20034;-80
2022/01/11 02:23:00;;;;;;;2.80;0.88;;;;;;;1.13;78.32;94488.75;4997538;28;20030;-80
2022/01/11 02:25:26;;;;;;;2.53;1.10;;;;;;;2.66;77.78;94723.28;5032658;28;20045;-80
2022/01/11 02:27:51;;;;;;;1.75;0.90;;;;;;;1.97;77.60;94628.34;4999584;28;20033;-80
2022/01/11 02:30:16;;;;;;;1.58;1.25;;;;;;;2.33;77.77;94675.06;4999599;28;20033;-81
2022/01/11 02:32:52;;;;;;;1.85;1.02;;;;;;;2.77;78.11;94719.00;5031919;28;20088;-80
2022/01/11 02:35:18;;;;;;;2.90;1.40;;;;;;;2.69;78.12;94728.84;5017513;28;20026;-80
2022/01/11 02:37:44;;;;;;;1.65;1.08;;;;;;;2.56;77.71;94708.19;4999285;28;20040;-80
2022/01/11 02:40:12;;;;;;;2.67;1.33;;;;;;;1.92;78.41;94641.31;5031558;28;20029;-80
2022/01/11 02:42:37;;;;;;;5.57;1.52;;;;;;;2.32;78.53;94728.41;5016932;28;20029;-80
2022/01/11 02:45:03;;;;;;;1.83;1.13;;;;;;;2.43;77.99;94737.28;5016495;28;20542;-79
2022/01/11 02:47:28;;;;;;;5.00;1.67;;;;;;;1.96;77.12;94684.28;5016271;28;20097;-80
2022/01/11 02:49:54;;;;;;;5.47;1.20;;;;;;;1.13;75.91;94570.50;5015940;28;20037;-80
2022/01/11 02:52:20;;;;;;;1.80;1.05;;;;;;;2.23;76.41;94706.25;4998721;28;20034;-80
2022/01/11 02:54:45;;;;;;;1.05;0.80;;;;;;;2.37;76.10;94746.03;5016602;28;20037;-80
2022/01/11 02:57:11;;;;;;;2.42;0.80;;;;;;;2.14;76.45;94752.13;4999117;28;20045;-79
2022/01/11 02:59:36;;;;;;;2.03;0.80;;;;;;;1.82;76.92;94696.84;4999454;28;20034;-79
2022/01/11 03:02:01;;;;;;;0.70;0.70;;;;;;;2.37;76.60;94748.66;4999076;28;20034;-79
2022/01/11 03:04:32;;;;;;;1.38;0.73;;;;;;;2.24;76.93;94754.94;4959204;28;20053;-79
2022/01/11 03:07:07;;;;;;;1.38;0.62;;;;;;;2.02;76.28;94751.38;617525;28;10022950;-79
2022/01/11 03:09:46;;;;;;;0.63;0.63;;;;;;;1.40;75.39;94659.63;5015958;28;20262;-79
2022/01/11 03:12:12;;;;;;;0.60;0.60;;;;;;;1.90;76.45;94748.78;5016626;28;20049;-79
2022/01/11 03:14:38;;;;;;;1.20;0.77;;;;;;;1.82;75.60;94748.34;5016853;28;20034;-78
2022/01/11 03:17:05;;;;;;;1.25;0.60;;;;;;;1.27;75.85;94687.78;4999551;28;20432;-79
2022/01/11 03:19:30;;;;;;;1.20;0.70;;;;;;;1.20;77.28;94702.78;5016864;28;20034;-79
2022/01/11 03:21:56;;;;;;;1.35;0.95;;;;;;;1.03;77.58;94664.28;5031279;28;20133;-79
2022/01/11 03:24:21;;;;;;;1.15;0.68;;;;;;;1.43;77.49;94710.63;4998733;28;20033;-79
2022/01/11 03:26:46;;;;;;;0.93;0.80;;;;;;;1.72;77.58;94732.41;5016822;28;20085;-79
2022/01/11 03:29:12;;;;;;;1.40;0.90;;;;;;;1.67;77.27;94725.28;5031299;28;20538;-79
2022/01/11 03:31:38;;;;;;;1.60;0.90;;;;;;;1.63;76.55;94723.34;5016935;28;20041;-80
2022/01/11 03:34:04;;;;;;;3.67;0.95;;;;;;;1.61;75.41;94725.38;5031013;28;20084;-79
2022/01/11 03:36:29;;;;;;;1.02;0.65;;;;;;;1.66;75.98;94743.81;5014290;28;20038;-79
2022/01/11 03:38:55;;;;;;;2.08;0.93;;;;;;;1.27;76.24;94677.34;4999634;28;20037;-79
2022/01/11 03:41:20;;;;;;;2.25;1.10;;;;;;;1.76;76.02;94757.06;4999358;28;20438;-79
2022/01/11 03:43:45;;;;;;;1.25;0.95;;;;;;;1.63;75.91;94745.03;4998745;28;20046;-79
2022/01/11 03:46:11;;;;;;;1.70;1.00;;;;;;;1.98;76.11;94778.22;5032790;28;20084;-79
2022/01/11 03:48:36;;;;;;;2.15;1.02;;;;;;;1.32;75.94;94665.19;5017175;28;20030;-79
2022/01/11 03:51:02;;;;;;;1.33;0.98;;;;;;;2.01;76.54;94767.28;5031827;28;20079;-79
2022/01/11 03:53:33;;;;;;;2.25;1.10;;;;;;;1.30;74.72;94690.72;4998903;28;20033;-79
2022/01/11 03:56:11;;;;;;;5.32;1.80;;;;;;;1.49;74.88;94728.81;5016569;28;20405;-79
2022/01/11 03:58:37;;;;;;;3.28;1.55;;;;;;;1.89;75.47;94778.56;4998872;28;20049;-79
2022/01/11 04:01:02;;;;;;;2.85;1.40;;;;;;;1.94;76.08;94793.56;5016566;28;20038;-79
2022/01/11 04:03:28;;;;;;;3.10;1.40;;;;;;;2.07;77.31;94788.06;4999841;28;20033;-80
2022/01/11 04:05:54;;;;;;;6.93;1.80;;;;;;;1.76;76.37;94725.69;5016851;28;20042;-79
2022/01/11 04:08:20;;;;;;;5.13;1.40;;;;;;;2.00;76.51;94791.84;5032118;28;20129;-79
2022/01/11 04:10:46;;;;;;;5.22;2.22;;;;;;;1.66;75.29;94728.91;5031678;28;20513;-79
2022/01/11 04:13:11;;;;;;;2.22;0.88;;;;;;;1.39;74.78;94689.38;5031056;28;20041;-79
2022/01/11 04:15:37;;;;;;;1.40;0.90;;;;;;;2.09;75.11;94799.13;5016069;28;20038;-79
2022/01/11 04:18:02;;;;;;;2.10;1.40;;;;;;;2.03;73.97;94804.47;4998215;28;20500;-79
2022/01/11 04:20:28;;;;;;;2.38;1.67;;;;;;;2.08;74.63;94809.81;5013247;28;20050;-79
2022/01/11 04:22:53;;;;;;;2.22;0.90;;;;;;;1.81;74.63;94785.97;5013204;28;20108;-79
2022/01/11 04:25:19;;;;;;;3.50;1.10;;;;;;;1.83;74.46;94766.38;5012979;28;20052;-79
2022/01/11 04:27:44;;;;;;;1.27;0.80;;;;;;;1.77;73.70;94741.16;5012957;28;20422;-79
2022/01/11 04:30:11;;;;;;;1.15;0.98;;;;;;;2.03;74.72;94786.16;4994751;28;20037;-79
2022/01/11 04:32:36;;;;;;;1.25;0.98;;;;;;;1.87;73.27;94770.16;5027647;28;20484;-78
2022/01/11 04:35:03;;;;;;;2.55;1.60;;;;;;;1.73;72.24;94768.00;5012453;28;20061;-79
2022/01/11 04:37:28;;;;;;;4.85;1.00;;;;;;;1.53;71.42;94747.41;5012804;28;20037;-79
2022/01/11 04:39:54;;;;;;;2.78;1.60;;;;;;;2.05;73.17;94831.19;5027621;28;20484;-79
2022/01/11 04:42:19;;;;;;;1.38;0.85;;;;;;;1.77;71.35;94796.06;5027419;28;20042;-79
2022/01/11 04:44:45;;;;;;;6.25;1.00;;;;;;;1.48;72.09;94724.59;5026856;28;20164;-79
2022/01/11 04:47:10;;;;;;;1.38;1.00;;;;;;;1.78;71.22;94791.63;5026837;28;20438;-79
2022/01/11 04:49:36;;;;;;;1.13;0.90;;;;;;;2.26;70.93;94839.25;5011876;28;20037;-79
2022/01/11 04:52:01;;;;;;;3.17;1.50;;;;;;;2.07;70.96;94850.84;4993788;28;20084;-79
2022/01/11 04:54:27;;;;;;;2.80;1.08;;;;;;;1.59;70.06;94790.16;5013794;28;20495;-79
2022/01/11 04:56:53;;;;;;;1.92;1.02;;;;;;;1.85;71.67;94836.75;4996528;28;20613;-79
2022/01/11 04:59:18;;;;;;;1.13;0.88;;;;;;;1.43;71.35;94770.72;5015093;28;20060;-79
2022/01/11 05:01:44;;;;;;;1.63;0.90;;;;;;;0.91;70.60;94704.47;5014280;28;20034;-79
2022/01/11 05:04:19;;;;;;;1.62;1.00;;;;;;;1.23;71.13;94746.72;4877679;28;10000715;-79
2022/01/11 05:06:44;;;;;;;1.38;1.00;;;;;;;1.38;71.10;94766.16;689849;28;10002521;-79
2022/01/11 05:09:09;;;;;;;1.00;0.90;;;;;;;1.36;69.00;94783.09;5014457;28;20276;-79
2022/01/11 05:11:35;;;;;;;2.90;1.00;;;;;;;1.45;69.50;94813.88;4996089;28;20140;-79
2022/01/11 05:14:00;;;;;;;1.80;1.10;;;;;;;1.64;70.74;94832.09;5014628;28;20041;-79
2022/01/11 05:16:26;;;;;;;1.75;1.20;;;;;;;1.53;70.91;94808.31;4995445;28;20521;-79
2022/01/11 05:18:51;;;;;;;2.15;1.05;;;;;;;1.73;70.34;94856.88;5028829;28;20149;-79
2022/01/11 05:21:17;;;;;;;1.60;1.20;;;;;;;1.60;70.79;94831.78;4997778;28;20061;-79
2022/01/11 05:23:42;;;;;;;2.33;1.77;;;;;;;1.47;70.49;94814.47;5015397;28;20069;-80
2022/01/11 05:26:08;;;;;;;3.28;1.92;;;;;;;1.81;71.27;94864.41;5014933;28;20149;-79
2022/01/11 05:28:34;;;;;;;2.90;2.20;;;;;;;1.87;72.32;94882.59;5014652;28;20038;-79
2022/01/11 05:31:01;;;;;;;3.30;1.50;;;;;;;1.12;70.84;94818.84;5029059;28;20034;-80
2022/01/11 05:33:27;;;;;;;1.75;1.20;;;;;;;1.49;70.67;94882.19;5015253;28;20137;-80
2022/01/11 05:35:53;;;;;;;3.38;1.75;;;;;;;1.03;70.90;94807.09;5014574;28;20045;-79
2022/01/11 05:38:18;;;;;;;2.25;1.20;;;;;;;1.62;70.34;94886.41;5015990;28;20030;-80
2022/01/11 05:40:44;;;;;;;5.50;1.50;;;;;;;1.41;71.25;94843.31;5030690;28;20111;-79
2022/01/11 05:43:11;;;;;;;2.80;1.65;;;;;;;1.28;71.24;94853.97;4998178;28;20065;-79
2022/01/11 05:45:37;;;;;;;1.98;1.50;;;;;;;1.26;70.04;94853.38;4998756;28;20073;-79
2022/01/11 05:48:04;;;;;;;4.10;0.90;;;;;;;1.33;70.67;94852.28;4997821;28;20030;-79
2022/01/11 05:50:29;;;;;;;2.88;1.60;;;;;;;1.09;70.51;94809.63;4996962;28;20041;-79
2022/01/11 05:52:55;;;;;;;4.15;1.92;;;;;;;1.76;72.28;94899.03;5014708;28;20175;-79
2022/01/11 05:55:20;;;;;;;2.88;1.25;;;;;;;1.57;71.34;94894.13;5015252;28;20042;-79
2022/01/11 05:57:46;;;;;;;2.75;1.30;;;;;;;1.23;70.05;94845.97;5016975;28;20068;-79
2022/01/11 06:00:18;;;;;;;4.38;1.85;;;;;;;1.47;70.64;94903.31;5000967;28;20033;-80
2022/01/11 06:02:46;;;;;;;6.05;3.22;;;;;;;1.24;71.45;94855.41;5017224;28;20446;-79
2022/01/11 06:05:12;;;;;;;4.75;3.00;;;;;;;1.17;70.86;94852.91;5033028;28;20065;-81
2022/01/11 06:07:39;;;;;;;4.65;2.05;;;;;;;0.88;70.25;94845.88;5020972;28;20037;-81
2022/01/11 06:10:05;;;;;;;4.70;2.00;;;;;;;1.05;70.54;94876.38;5001738;28;20040;-81
2022/01/11 06:12:31;;;;;;;3.85;2.05;;;;;;;0.71;71.63;94832.66;5035045;28;20048;-80
2022/01/11 06:14:57;;;;;;;3.03;1.60;;;;;;;0.60;71.47;94796.88;5021005;28;20462;-80
2022/01/11 06:17:22;;;;;;;3.47;1.90;;;;;;;1.21;70.75;94901.09;5020258;28;20038;-80
2022/01/11 06:19:48;;;;;;;1.73;1.13;;;;;;;0.74;69.55;94856.50;5003335;28;20145;-81
2022/01/11 06:22:13;;;;;;;2.33;1.25;;;;;;;1.05;68.95;94891.25;5002723;28;20034;-80
2022/01/11 06:24:38;;;;;;;2.55;1.30;;;;;;;1.14;69.38;94875.03;5020529;28;20112;-80
2022/01/11 06:27:04;;;;;;;4.90;1.80;;;;;;;0.61;69.77;94783.56;5003400;28;20030;-80
2022/01/11 06:29:30;;;;;;;4.03;1.52;;;;;;;1.62;71.56;94938.69;5016533;28;20420;-79
2022/01/11 06:31:55;;;;;;;2.95;1.80;;;;;;;1.22;70.03;94886.97;5014781;28;20091;-78
2022/01/11 06:34:21;;;;;;;3.95;1.60;;;;;;;0.65;67.37;94828.31;5016764;28;20100;-79
2022/01/11 06:36:46;;;;;;;3.45;1.77;;;;;;;1.70;69.73;94967.13;4998156;28;20442;-78
2022/01/11 06:39:12;;;;;;;11.38;2.13;;;;;;;1.29;69.59;94895.56;5018759;28;20045;-79
2022/01/11 06:41:37;;;;;;;2.70;1.80;;;;;;;1.72;69.67;94947.59;5018288;28;20041;-79
2022/01/11 06:44:05;;;;;;;2.50;1.85;;;;;;;1.69;71.29;94957.69;5019276;28;20066;-80
2022/01/11 06:46:30;;;;;;;3.40;1.70;;;;;;;0.96;68.82;94856.81;4998573;28;20120;-79
2022/01/11 06:48:57;;;;;;;4.50;2.28;;;;;;;1.23;68.66;94914.69;5016582;28;20065;-79
2022/01/11 06:51:22;;;;;;;2.45;1.70;;;;;;;1.12;69.58;94900.59;4999490;28;20034;-79
2022/01/11 06:53:48;;;;;;;4.35;1.63;;;;;;;1.61;69.37;94961.41;5016646;28;20485;-80
2022/01/11 06:56:14;;;;;;;3.72;1.75;;;;;;;0.88;68.78;94869.38;5030793;28;20038;-80
2022/01/11 06:58:39;;;;;;;4.00;1.65;;;;;;;1.36;68.53;94935.44;4998436;28;20038;-78
2022/01/11 07:01:05;;;;;;;4.20;2.75;;;;;;;1.44;70.05;94948.19;5029990;28;20046;-78
2022/01/11 07:03:31;;;;;;;4.15;2.30;;;;;;;1.36;69.67;94956.34;5031962;28;20048;-80
2022/01/11 07:05:56;;;;;;;6.82;2.58;;;;;;;0.77;70.42;94863.88;4998417;28;20049;-79
2022/01/11 07:08:23;;;;;;;16.70;4.45;;;;;;;1.20;69.02;94920.38;5000638;28;20049;-81
2022/01/11 07:10:48;;;;;;;5.25;2.42;;;;;;;0.69;69.50;94827.63;5000700;28;20465;-80
2022/01/11 07:13:14;;;;;;;3.80;2.22;;;;;;;1.40;68.80;94967.13;5032458;28;20042;-79
2022/01/11 07:15:39;;;;;;;6.35;3.00;;;;;;;0.87;69.72;94927.81;5000325;28;20034;-79
2022/01/11 07:18:09;;;;;;;5.45;3.47;;;;;;;1.16;69.55;94935.69;5019761;28;20038;-81
2022/01/11 07:20:35;;;;;;;5.65;2.67;;;;;;;1.04;68.28;94895.69;5018772;28;20030;-81
2022/01/11 07:23:01;;;;;;;4.97;2.13;;;;;;;1.60;68.39;94995.63;5002349;28;20057;-80
2022/01/11 07:25:30;;;;;;;2.90;1.80;;;;;;;1.72;68.43;95028.63;5017704;28;20133;-80
2022/01/11 07:27:56;;;;;;;4.88;2.30;;;;;;;1.55;69.12;95032.88;5032005;28;20034;-79
2022/01/11 07:30:21;;;;;;;7.95;2.42;;;;;;;1.34;69.26;94988.94;4999016;28;20044;-80
2022/01/11 07:32:47;;;;;;;2.58;1.70;;;;;;;1.33;68.49;95001.19;5016806;28;20037;-79
2022/01/11 07:35:13;;;;;;;4.63;2.05;;;;;;;1.26;68.86;94978.78;5017293;28;20489;-79
2022/01/11 07:37:38;;;;;;;4.30;1.40;;;;;;;1.37;68.18;94998.94;4999787;28;20454;-80
2022/01/11 07:40:04;;;;;;;4.90;2.90;;;;;;;1.35;70.44;95009.63;5016948;28;20030;-79
2022/01/11 07:42:30;;;;;;;2.88;2.13;;;;;;;1.26;70.02;94970.94;5000437;28;20116;-81
2022/01/11 07:44:55;;;;;;;3.30;1.83;;;;;;;1.45;69.27;95046.47;5001012;28;20074;-80
2022/01/11 07:47:21;;;;;;;3.00;1.70;;;;;;;1.38;69.01;95006.53;5002412;28;20261;-80
2022/01/11 07:49:47;;;;;;;5.47;1.83;;;;;;;1.31;68.87;95005.84;5002547;28;20064;-79
2022/01/11 07:52:13;;;;;;;2.17;1.50;;;;;;;1.37;70.15;95014.63;5002614;28;20040;-79
2022/01/11 07:54:39;;;;;;;5.07;2.10;;;;;;;1.62;70.09;95053.69;5018759;28;20038;-79
2022/01/11 07:57:04;;;;;;;3.80;2.20;;;;;;;0.98;69.16;94974.91;4999315;28;20036;-79
2022/01/11 07:59:30;;;;;;;3.33;1.80;;;;;;;1.03;70.58;94993.31;5032036;28;20117;-80
2022/01/11 08:01:55;;;;;;;6.90;1.90;;;;;;;1.44;69.42;95046.69;5016518;28;20127;-79
2022/01/11 08:04:21;;;;;;;4.80;1.90;;;;;;;0.95;69.68;95006.66;5030543;28;20044;-79
2022/01/11 08:06:47;;;;;;;2.83;1.83;;;;;;;1.27;70.86;95046.50;5015503;28;20037;-79
2022/01/11 08:09:14;;;;;;;5.30;2.30;;;;;;;1.09;69.29;95015.16;5015337;28;20064;-79
2022/01/11 08:11:40;;;;;;;2.20;1.50;;;;;;;0.88;70.14;94987.66;5014508;28;20117;-79
2022/01/11 08:14:05;;;;;;;4.90;3.30;;;;;;;0.80;70.28;94958.44;4995884;28;20057;-78
2022/01/11 08:16:31;;;;;;;8.18;3.55;;;;;;;0.58;70.02;94974.53;4994888;28;20049;-79
2022/01/11 08:18:56;;;;;;;5.43;2.90;;;;;;;1.03;71.22;95047.34;4996186;28;20509;-79
2022/01/11 08:21:22;;;;;;;3.97;2.40;;;;;;;1.45;71.05;95095.34;5014552;28;20373;-79
2022/01/11 08:23:47;;;;;;;6.35;2.40;;;;;;;0.72;70.72;95011.72;4996583;28;20046;-79
2022/01/11 08:26:14;;;;;;;4.75;2.40;;;;;;;0.15;70.85;94898.91;5030059;28;20061;-78
2022/01/11 08:28:41;;;;;;;3.97;2.13;;;;;;;1.00;70.56;95022.47;5015187;28;20045;-79
2022/01/11 08:31:06;;;;;;;4.68;2.63;;;;;;;1.26;71.88;95098.94;5017970;28;20034;-78
2022/01/11 08:33:32;;;;;;;5.60;3.38;;;;;;;0.19;71.12;94941.78;4998785;28;20108;-79
2022/01/11 08:35:57;;;;;;;5.40;2.70;;;;;;;1.09;72.11;95094.28;4996798;28;20458;-79
2022/01/11 08:38:23;;;;;;;6.95;3.53;;;;;;;1.07;72.20;95072.00;5015291;28;20045;-80
2022/01/11 08:40:48;;;;;;;11.57;3.97;;;;;;;0.46;72.64;94988.50;5015594;28;20029;-79
2022/01/11 08:43:17;;;;;;;14.20;4.60;;;;;;;0.88;72.29;95028.63;4996903;28;20517;-82
2022/01/11 08:45:43;;;;;;;11.68;5.05;;;;;;;1.22;72.19;95092.59;4997467;28;20035;-80
2022/01/11 08:48:08;;;;;;;14.88;6.20;;;;;;;0.97;73.18;95029.94;4995614;28;20409;-81
2022/01/11 08:50:34;;;;;;;7.22;3.45;;;;;;;1.39;71.44;95125.72;4994010;28;20458;-80
2022/01/11 08:52:59;;;;;;;8.10;3.22;;;;;;;0.73;71.04;95026.38;5029155;28;20049;-80
2022/01/11 08:55:25;;;;;;;10.00;4.07;;;;;;;0.07;72.21;94919.25;5028242;28;20034;-81
2022/01/11 08:57:51;;;;;;;12.00;3.90;;;;;;;0.90;71.23;95034.44;4995356;28;20155;-80
2022/01/11 09:00:18;;;;;;;11.50;3.22;;;;;;;1.31;70.30;95099.09;4995118;28;20038;-80
2022/01/11 09:02:48;;;;;;;8.85;3.97;;;;;;;1.46;70.10;95113.38;4996405;28;20488;-80
2022/01/11 09:05:15;;;;;;;6.25;2.40;;;;;;;1.01;68.23;95086.75;4996219;28;20034;-78
2022/01/11 09:07:41;;;;;;;4.28;2.42;;;;;;;1.13;69.61;95110.34;4996651;28;20042;-81
2022/01/11 09:10:07;;;;;;;4.25;2.28;;;;;;;1.16;68.89;95115.91;5028839;28;20079;-79
2022/01/11 09:12:34;;;;;;;7.45;2.00;;;;;;;0.85;69.34;95112.59;4994923;28;20552;-79
2022/01/11 09:15:00;;;;;;;4.10;2.20;;;;;;;0.94;69.80;95134.81;4996887;28;20056;-80
2022/01/11 09:17:27;;;;;;;4.13;2.20;;;;;;;0.60;69.54;95116.03;5026729;28;20050;-79
2022/01/11 09:19:53;;;;;;;6.05;1.90;;;;;;;0.95;70.68;95159.91;4997456;28;20046;-79
2022/01/11 09:22:19;;;;;;;5.78;3.05;;;;;;;0.85;70.86;95117.81;4995910;28;20041;-80
2022/01/11 09:24:44;;;;;;;4.13;2.20;;;;;;;0.94;71.93;95155.72;4996067;28;20064;-80
2022/01/11 09:27:10;;;;;;;7.85;2.58;;;;;;;0.58;71.77;95097.19;4997472;28;20077;-79
2022/01/11 09:29:37;;;;;;;4.28;2.00;;;;;;;0.89;70.41;95139.91;4997306;28;20038;-79
2022/01/11 09:32:05;;;;;;;3.58;2.10;;;;;;;0.89;71.20;95164.19;5012829;28;20035;-79
2022/01/11 09:34:31;;;;;;;5.65;2.58;;;;;;;0.25;71.11;95060.09;5032030;28;20493;-79
2022/01/11 09:36:56;;;;;;;5.50;2.80;;;;;;;0.59;71.82;95182.28;5031692;28;20062;-79
2022/01/11 09:39:23;;;;;;;3.45;1.85;;;;;;;0.28;72.32;95132.72;5031496;28;20038;-79
2022/01/11 09:41:49;;;;;;;6.68;2.33;;;;;;;-0.22;72.00;95043.16;4997287;28;20053;-80
2022/01/11 09:44:15;;;;;;;4.93;2.55;;;;;;;0.27;71.70;95112.88;5011285;28;20132;-79
2022/01/11 09:46:40;;;;;;;4.85;2.22;;;;;;;0.24;70.41;95105.44;5000202;28;20069;-79
2022/01/11 09:49:06;;;;;;;5.38;2.42;;;;;;;0.43;70.53;95101.91;4999858;28;20062;-79
2022/01/11 09:51:34;;;;;;;5.28;2.47;;;;;;;0.83;71.17;95170.28;5000238;28;20069;-79
2022/01/11 09:54:00;;;;;;;7.70;2.47;;;;;;;0.95;70.61;95170.38;5033826;28;20044;-79
2022/01/11 09:56:25;;;;;;;6.70;3.03;;;;;;;0.67;70.46;95127.22;4999140;28;20049;-79
2022/01/11 09:58:51;;;;;;;5.85;2.33;;;;;;;0.76;69.82;95175.53;5016285;28;20189;-78
2022/01/11 10:01:17;;;;;;;6.45;2.70;;;;;;;0.90;70.16;95155.34;5015200;28;20034;-79
2022/01/11 10:04:03;;;;;;;5.97;1.92;;;;;;;0.63;69.85;95127.84;5016947;28;20695;-81
2022/01/11 10:06:29;;;;;;;5.85;3.00;;;;;;;0.87;70.77;95168.03;5032424;28;20030;-78
2022/01/11 10:09:18;;;;;;;4.97;2.63;;;;;;;0.61;69.79;95122.84;5016474;28;20060;-78
2022/01/11 10:11:50;;;;;;;5.70;2.85;;;;;;;0.98;69.71;95167.34;5001868;28;20036;-85
2022/01/11 10:14:29;;;;;;;4.10;1.90;;;;;;;0.85;70.13;95167.44;5017503;28;20046;-86
2022/01/11 10:17:09;;;;;;;5.07;2.20;;;;;;;0.75;69.68;95134.00;5018723;28;20158;-86
2022/01/11 10:19:39;;;;;;;3.45;2.42;;;;;;;0.80;68.82;95152.41;5035092;28;20048;-86
2022/01/11 10:22:07;;;;;;;5.68;2.55;;;;;;;0.34;69.08;95071.88;5002699;28;20050;-82
2022/01/11 10:24:43;;;;;;;4.90;2.67;;;;;;;0.86;69.66;95148.16;5033607;28;20132;-82
2022/01/11 10:27:21;;;;;;;6.13;2.92;;;;;;;0.96;70.26;95174.59;5033386;28;20132;-81
2022/01/11 10:29:51;;;;;;;4.55;2.30;;;;;;;0.77;69.79;95171.09;5033652;28;20030;-80
2022/01/11 10:32:20;;;;;;;6.97;2.72;;;;;;;1.01;70.03;95179.94;5002391;28;20037;-81
2022/01/11 10:34:49;;;;;;;3.42;1.92;;;;;;;0.43;68.53;95104.53;5036533;28;20096;-79
2022/01/11 10:37:26;;;;;;;4.65;2.13;;;;;;;0.83;69.48;95169.47;4999106;28;20087;-79
2022/01/11 10:40:08;;;;;;;4.28;2.50;;;;;;;0.67;68.46;95148.09;5000583;28;20037;-79
2022/01/11 10:42:38;;;;;;;5.93;2.92;;;;;;;0.71;68.74;95175.38;5032338;28;20433;-79
2022/01/11 10:45:09;;;;;;;6.55;2.75;;;;;;;0.74;69.26;95176.75;5000324;28;20089;-80
2022/01/11 10:47:38;;;;;;;6.45;3.08;;;;;;;0.10;67.63;95109.97;4999425;28;20026;-79
2022/01/11 10:50:09;;;;;;;4.63;2.40;;;;;;;-0.13;68.06;95052.34;4999539;28;20034;-79
2022/01/11 10:52:35;;;;;;;5.70;2.60;;;;;;;0.02;68.74;95130.25;5032300;28;20061;-79
2022/01/11 10:55:05;;;;;;;7.25;2.78;;;;;;;0.43;69.14;95171.56;4998969;28;20034;-80
2022/01/11 10:57:33;;;;;;;5.47;2.45;;;;;;;0.35;69.22;95156.97;5016860;28;20034;-80
2022/01/11 11:00:16;;;;;;;12.02;3.22;;;;;;;-0.77;67.70;94995.19;5030605;28;20029;-79
2022/01/11 11:02:46;;;;;;;6.97;2.53;;;;;;;0.51;69.41;95168.69;5032931;28;20481;-80
2022/01/11 11:05:18;;;;;;;7.45;4.25;;;;;;;-0.07;70.63;95107.03;4998098;28;20057;-78
2022/01/11 11:07:53;;;;;;;;;;;;;;;0.74;69.08;95177.56;5033557;28;20040;-79
2022/01/11 11:10:32;;;;;;;6.63;3.50;;;;;;;0.49;69.47;95162.88;5018145;28;19937;-79
2022/01/11 11:12:59;;;;;;;9.52;3.60;;;;;;;0.84;68.53;95190.13;5003413;28;20524;-79
2022/01/11 11:15:37;;;;;;;5.78;2.83;;;;;;;0.46;69.07;95139.84;5004351;28;20544;-79
2022/01/11 11:18:05;;;;;;;12.55;3.88;;;;;;;0.67;68.07;95176.81;5003528;28;20054;-83
2022/01/11 11:20:33;;;;;;;7.90;3.88;;;;;;;0.88;69.16;95178.25;5022005;28;20141;-81
2022/01/11 11:23:01;;;;;;;7.05;3.80;;;;;;;0.44;68.22;95121.78;5019717;28;20040;-82
2022/01/11 11:25:27;;;;;;;7.30;3.53;;;;;;;0.70;66.66;95186.00;5007525;28;20025;-82
2022/01/11 11:27:53;;;;;;;7.40;3.33;;;;;;;0.67;66.99;95191.69;5006517;28;20093;-82
2022/01/11 11:30:19;;;;;;;6.00;2.90;;;;;;;0.65;66.33;95173.63;5019542;28;20034;-82
2022/01/11 11:32:46;;;;;;;3.70;2.63;;;;;;;0.76;67.66;95190.41;5021716;28;20044;-83
2022/01/11 11:35:14;;;;;;;12.02;4.20;;;;;;;0.52;67.65;95157.25;5021403;28;20034;-82
2022/01/11 11:37:46;;;;;;;6.18;3.45;;;;;;;0.46;65.49;95121.56;5004666;28;20034;-83
2022/01/11 11:40:20;;;;;;;11.90;3.58;;;;;;;0.89;67.41;95197.34;5036131;28;20030;-82
2022/01/11 11:42:50;;;;;;;13.23;4.63;;;;;;;0.19;64.83;95082.63;5002598;28;20033;-82
2022/01/11 11:45:36;;;;;;;11.95;4.00;;;;;;;0.20;64.93;95146.81;5002016;28;20100;-82